Time;durP1;ratioP1;P1;durP2;ratioP2;P2;SDS_P1;SDS_P2;PMS_P1;PMS_P2;Temp;Humidity;BMP_temperature;BMP_pressure;BME280_temperature;BME280_humidity;BME280_pressure;Samples;Min_cycle;Max_cycle;Signal;HPM_P1;HPM_P2
2021/06/08 00:00:08;;;;;;;2.40;1.90;;;;;;;22.07;58.60;100237.50;2088970;28;20029;-58
2021/06/08 00:01:08;;;;;;;2.60;1.90;;;;;;;22.06;58.99;100236.63;2090447;28;20477;-57
2021/06/08 00:02:09;;;;;;;2.37;2.03;;;;;;;22.07;58.68;100243.84;2088805;28;20037;-57
2021/06/08 00:03:09;;;;;;;2.10;1.67;;;;;;;22.09;58.66;100239.03;2085735;28;20036;-54
2021/06/08 00:04:10;;;;;;;2.57;1.67;;;;;;;22.08;58.81;100242.81;2079860;28;20534;-57
2021/06/08 00:05:10;;;;;;;3.27;2.20;;;;;;;22.09;58.98;100243.69;2080267;28;20037;-57
2021/06/08 00:06:11;;;;;;;2.33;1.70;;;;;;;22.09;58.93;100249.16;2087556;28;20025;-57
2021/06/08 00:07:11;;;;;;;3.73;1.90;;;;;;;22.08;58.76;100245.56;2090392;28;20113;-57
2021/06/08 00:08:12;;;;;;;3.80;2.03;;;;;;;22.09;58.89;100246.44;2087053;28;20557;-58
2021/06/08 00:09:12;;;;;;;3.23;2.20;;;;;;;22.09;58.97;100244.53;2083394;28;20056;-57
2021/06/08 00:10:13;;;;;;;2.77;1.83;;;;;;;22.08;59.02;100242.81;2083017;28;20432;-57
2021/06/08 00:11:16;;;;;;;2.77;1.53;;;;;;;22.08;58.67;100245.56;2090375;28;20037;-57
2021/06/08 00:12:16;;;;;;;3.10;1.90;;;;;;;22.07;58.62;100243.84;2086368;28;20025;-58
2021/06/08 00:13:17;;;;;;;3.43;2.20;;;;;;;22.07;59.06;100241.09;2084629;28;20706;-58
2021/06/08 00:14:17;;;;;;;2.30;2.00;;;;;;;22.08;58.81;100245.56;2082441;28;20067;-57
2021/06/08 00:15:17;;;;;;;2.37;1.73;;;;;;;22.08;58.72;100242.81;2084385;28;20343;-57
2021/06/08 00:16:18;;;;;;;2.80;1.87;;;;;;;22.08;58.92;100242.81;2083292;28;20100;-57
2021/06/08 00:17:18;;;;;;;2.63;1.70;;;;;;;22.09;58.88;100244.53;2077906;28;20072;-58
2021/06/08 00:18:19;;;;;;;3.37;2.07;;;;;;;22.06;59.07;100233.91;2082380;28;20323;-58
2021/06/08 00:19:19;;;;;;;3.73;1.90;;;;;;;22.07;58.72;100232.84;2087845;28;20035;-57
2021/06/08 00:20:20;;;;;;;2.23;1.90;;;;;;;22.09;58.92;100239.03;2087794;28;20422;-57
2021/06/08 00:21:20;;;;;;;3.00;1.80;;;;;;;22.08;58.94;100231.84;2082268;28;20327;-57
2021/06/08 00:22:21;;;;;;;2.37;2.17;;;;;;;22.07;58.95;100235.59;2082491;28;20074;-57
2021/06/08 00:23:21;;;;;;;3.43;1.97;;;;;;;22.08;58.84;100231.84;2083473;28;20310;-57
2021/06/08 00:24:22;;;;;;;2.93;1.87;;;;;;;22.08;58.89;100226.34;2087370;28;20025;-57
2021/06/08 00:25:22;;;;;;;3.20;2.07;;;;;;;22.07;58.88;100221.88;2081156;28;20088;-58
2021/06/08 00:26:23;;;;;;;3.07;2.00;;;;;;;22.08;58.75;100223.63;2081051;28;20033;-57
2021/06/08 00:27:24;;;;;;;4.60;1.90;;;;;;;22.08;58.75;100220.00;2087547;28;20031;-57
2021/06/08 00:28:24;;;;;;;1.97;1.77;;;;;;;22.07;59.01;100213.63;2086386;28;20037;-57
2021/06/08 00:29:24;;;;;;;2.80;1.80;;;;;;;22.08;58.80;100220.88;2081737;28;20040;-57
2021/06/08 00:30:25;;;;;;;2.60;1.70;;;;;;;22.07;58.70;100219.13;2086723;28;20024;-57
2021/06/08 00:31:26;;;;;;;2.63;2.07;;;;;;;22.07;58.87;100213.63;2082554;28;20447;-57
2021/06/08 00:32:26;;;;;;;2.77;1.70;;;;;;;22.07;58.67;100219.13;2083719;28;20283;-57
2021/06/08 00:33:27;;;;;;;2.40;1.80;;;;;;;22.07;59.04;100212.78;2085191;28;20029;-57
2021/06/08 00:34:27;;;;;;;2.37;1.77;;;;;;;22.07;58.77;100213.63;2088383;28;20028;-57
2021/06/08 00:35:29;;;;;;;3.37;2.10;;;;;;;22.08;58.96;100220.00;2083790;28;20033;-57
2021/06/08 00:36:30;;;;;;;2.83;1.63;;;;;;;22.07;58.69;100219.13;2082263;28;20606;-58
2021/06/08 00:37:31;;;;;;;4.15;2.00;;;;;;;22.07;58.79;100219.13;2081216;28;20348;-57
2021/06/08 00:38:31;;;;;;;2.67;1.97;;;;;;;22.07;58.78;100221.88;2082161;28;20100;-57
2021/06/08 00:39:32;;;;;;;3.33;2.40;;;;;;;22.08;58.66;100220.88;2082425;28;20030;-57
2021/06/08 00:40:33;;;;;;;2.60;1.90;;;;;;;22.07;58.59;100213.63;2086655;28;20101;-58
2021/06/08 00:41:40;;;;;;;3.83;2.63;;;;;;;22.07;58.80;100219.13;2086550;28;20037;-57
2021/06/08 00:42:40;;;;;;;3.47;2.00;;;;;;;22.07;58.64;100230.09;2081640;28;20044;-57
2021/06/08 00:43:41;;;;;;;3.87;1.80;;;;;;;22.07;58.76;100213.63;2085898;28;20120;-57
2021/06/08 00:44:41;;;;;;;8.57;2.20;;;;;;;22.08;58.86;100220.00;2084996;28;20036;-57
2021/06/08 00:45:42;;;;;;;4.47;1.80;;;;;;;22.07;58.87;100216.38;2082826;28;20078;-58
2021/06/08 00:46:45;;;;;;;3.87;2.00;;;;;;;22.06;58.87;100217.44;2089922;28;20339;-57
2021/06/08 00:47:46;;;;;;;3.30;1.90;;;;;;;22.07;59.04;100216.38;2082241;28;20029;-58
2021/06/08 00:48:46;;;;;;;3.20;1.53;;;;;;;22.05;58.62;100208.34;2082358;28;20025;-57
2021/06/08 00:49:46;;;;;;;3.80;2.23;;;;;;;22.07;58.92;100210.91;2084332;28;20033;-57
2021/06/08 00:50:47;;;;;;;2.57;2.17;;;;;;;22.06;58.79;100209.19;2081039;28;20045;-57
2021/06/08 00:51:48;;;;;;;2.20;1.73;;;;;;;22.05;58.78;100215.72;2086835;28;20024;-57
2021/06/08 00:52:51;;;;;;;2.33;1.70;;;;;;;22.06;58.84;100206.44;2082168;28;20033;-57
2021/06/08 00:53:53;;;;;;;2.90;2.17;;;;;;;22.05;58.75;100205.59;2090200;28;20041;-58
2021/06/08 00:54:53;;;;;;;2.95;2.13;;;;;;;22.05;58.76;100204.75;2086803;28;20029;-57
2021/06/08 00:55:54;;;;;;;2.70;2.00;;;;;;;22.06;58.95;100211.94;2089023;28;20036;-57
2021/06/08 00:56:57;;;;;;;3.00;1.80;;;;;;;22.05;58.94;100204.75;2086644;28;20041;-57
2021/06/08 00:57:58;;;;;;;3.00;2.00;;;;;;;22.05;58.81;100204.75;2085493;28;20025;-57
2021/06/08 00:58:58;;;;;;;2.43;1.83;;;;;;;22.04;59.01;100201.09;2081716;28;20072;-57
2021/06/08 00:59:59;;;;;;;2.23;1.70;;;;;;;22.06;59.05;100211.94;2081346;28;20043;-57
2021/06/08 01:00:59;;;;;;;2.23;1.90;;;;;;;22.07;59.08;100210.03;2081435;28;20037;-58
2021/06/08 01:02:00;;;;;;;2.23;1.63;;;;;;;22.04;58.86;100208.50;2083478;28;20040;-57
2021/06/08 01:03:00;;;;;;;3.73;2.17;;;;;;;22.04;58.86;100203.84;2081554;28;20061;-57
2021/06/08 01:04:02;;;;;;;4.17;2.47;;;;;;;22.05;58.94;100210.22;2088737;28;20411;-58
2021/06/08 01:05:05;;;;;;;1.70;1.60;;;;;;;22.04;58.82;100208.50;2085960;28;20067;-58
2021/06/08 01:06:06;;;;;;;2.47;1.75;;;;;;;22.04;58.81;100209.34;2081486;28;20036;-57
2021/06/08 01:07:06;;;;;;;3.27;2.30;;;;;;;22.03;59.06;100206.78;2088447;28;20033;-57
2021/06/08 01:08:07;;;;;;;3.13;2.30;;;;;;;22.03;59.03;100202.16;2086436;28;20119;-57
2021/06/08 01:09:08;;;;;;;2.07;1.60;;;;;;;22.03;59.30;100209.53;2090287;28;20081;-57
2021/06/08 01:10:10;;;;;;;2.97;2.00;;;;;;;22.03;59.04;100207.63;2083673;28;20048;-57
2021/06/08 01:11:11;;;;;;;2.92;1.65;;;;;;;22.03;59.09;100206.78;2081839;28;20136;-57
2021/06/08 01:12:12;;;;;;;2.77;1.70;;;;;;;22.03;58.86;100207.63;2084095;28;20040;-58
2021/06/08 01:13:12;;;;;;;3.23;2.30;;;;;;;22.04;58.89;100208.50;2088419;28;20029;-57
2021/06/08 01:14:12;;;;;;;2.67;2.37;;;;;;;22.03;59.27;100212.28;2088442;28;20422;-57
2021/06/08 01:15:13;;;;;;;3.00;2.20;;;;;;;22.03;59.17;100215.03;2084713;28;20150;-58
2021/06/08 01:16:14;;;;;;;3.40;2.07;;;;;;;22.03;59.02;100207.63;2081549;28;20056;-57
2021/06/08 01:17:14;;;;;;;3.50;1.87;;;;;;;22.03;59.07;100215.03;2088396;28;20347;-58
2021/06/08 01:18:14;;;;;;;2.47;1.90;;;;;;;22.04;59.21;100219.47;2079980;28;20560;-58
2021/06/08 01:19:19;;;;;;;4.23;2.07;;;;;;;22.02;59.30;100221.50;2081780;28;20025;-57
2021/06/08 01:20:20;;;;;;;2.72;2.15;;;;;;;22.01;59.06;100215.16;2084634;28;20028;-58
2021/06/08 01:21:20;;;;;;;2.17;1.80;;;;;;;22.03;59.12;100215.03;2088278;28;20116;-57
2021/06/08 01:22:21;;;;;;;2.70;1.93;;;;;;;22.03;59.20;100212.28;2084138;28;20041;-57
2021/06/08 01:23:21;;;;;;;2.50;1.93;;;;;;;22.02;59.32;100224.25;2089934;28;20029;-57
2021/06/08 01:24:22;;;;;;;2.87;1.70;;;;;;;22.02;59.22;100225.16;2084258;28;20032;-57
2021/06/08 01:25:23;;;;;;;2.27;1.63;;;;;;;22.03;59.10;100223.25;2085557;28;20048;-57
2021/06/08 01:26:27;;;;;;;2.33;1.57;;;;;;;22.02;59.15;100222.41;2089622;28;20021;-57
2021/06/08 01:27:28;;;;;;;2.20;1.90;;;;;;;22.02;59.20;100216.03;2085752;28;20067;-57
2021/06/08 01:28:30;;;;;;;2.10;1.70;;;;;;;22.02;59.25;100227.00;2081170;28;20513;-58
2021/06/08 01:29:31;;;;;;;3.05;1.77;;;;;;;22.03;59.17;100223.25;2088312;28;20036;-57
2021/06/08 01:30:32;;;;;;;2.47;1.88;;;;;;;22.02;59.21;100221.50;2083956;28;20483;-58
2021/06/08 01:31:35;;;;;;;2.53;1.70;;;;;;;22.01;59.05;100220.66;2082900;28;20037;-58
2021/06/08 01:32:39;;;;;;;2.55;1.92;;;;;;;22.02;59.02;100222.41;2086230;28;20025;-57
2021/06/08 01:33:41;;;;;;;2.92;1.50;;;;;;;22.01;58.88;100217.06;2082853;28;20070;-57
2021/06/08 01:34:44;;;;;;;2.92;1.95;;;;;;;22.00;59.26;100221.69;2087188;28;20111;-57
2021/06/08 01:35:46;;;;;;;1.75;1.58;;;;;;;22.01;59.23;100222.56;2086089;28;20124;-57
2021/06/08 01:36:46;;;;;;;2.08;1.58;;;;;;;22.00;59.11;100224.44;2084871;28;20414;-57
2021/06/08 01:37:48;;;;;;;2.73;2.00;;;;;;;22.01;59.23;100222.56;2084722;28;20036;-57
2021/06/08 01:38:50;;;;;;;;;;;;;;;21.97;59.38;100223.91;2082540;28;20071;-57
2021/06/08 01:39:52;;;;;;;2.42;1.80;;;;;;;21.98;59.35;100225.63;2083209;28;19913;-58
2021/06/08 01:40:53;;;;;;;3.53;1.92;;;;;;;21.97;59.09;100219.25;2084431;28;20309;-57
2021/06/08 01:41:54;;;;;;;2.50;1.55;;;;;;;21.99;59.32;100221.84;2081538;28;20037;-58
2021/06/08 01:42:55;;;;;;;2.95;1.95;;;;;;;21.99;59.09;100216.38;2085737;28;20039;-57
2021/06/08 01:43:56;;;;;;;3.47;2.13;;;;;;;21.99;59.17;100227.34;2089787;28;20029;-58
2021/06/08 01:44:56;;;;;;;2.20;2.00;;;;;;;21.99;58.98;100224.59;2087712;28;20359;-58
2021/06/08 01:45:57;;;;;;;2.20;1.50;;;;;;;21.99;59.30;100225.44;2088201;28;20039;-57
2021/06/08 01:46:58;;;;;;;2.67;1.70;;;;;;;21.99;59.16;100222.72;2087275;28;20024;-57
2021/06/08 01:47:59;;;;;;;2.40;1.80;;;;;;;21.98;59.31;100231.97;2084370;28;20021;-58
2021/06/08 01:48:59;;;;;;;2.80;1.92;;;;;;;21.99;59.42;100222.72;2080870;28;20029;-57
2021/06/08 01:50:00;;;;;;;2.00;1.80;;;;;;;21.99;59.29;100224.59;2083708;28;20450;-57
2021/06/08 01:51:21;;;;;;;1.90;1.70;;;;;;;21.98;59.00;100220.16;2083262;28;20025;-57
2021/06/08 01:52:46;;;;;;;2.88;2.13;;;;;;;21.96;59.43;100217.56;2075650;28;20091;-58
2021/06/08 01:54:08;;;;;;;2.58;2.00;;;;;;;21.96;59.18;100222.19;2077703;28;20020;-57
2021/06/08 01:55:28;;;;;;;2.50;2.00;;;;;;;21.95;59.20;100214.97;2081542;28;20039;-57
2021/06/08 01:56:32;;;;;;;2.83;1.60;;;;;;;21.96;59.63;100212.06;2082104;28;20029;-57
2021/06/08 01:57:42;;;;;;;2.42;1.85;;;;;;;21.95;59.39;100210.38;2083758;28;20029;-57
2021/06/08 01:59:09;;;;;;;2.13;1.65;;;;;;;21.95;59.52;100214.97;2080892;28;20025;-57
2021/06/08 02:00:18;;;;;;;2.00;1.60;;;;;;;21.95;59.24;100214.97;2087694;28;20690;-57
2021/06/08 02:01:27;;;;;;;2.63;1.58;;;;;;;21.95;59.29;100212.22;2081366;28;20112;-57
2021/06/08 02:02:53;;;;;;;3.00;1.80;;;;;;;21.94;59.47;100211.38;2082847;28;20291;-57
2021/06/08 02:04:00;;;;;;;2.33;1.85;;;;;;;21.95;59.38;100214.97;2083797;28;20104;-57
2021/06/08 02:05:28;;;;;;;3.10;1.70;;;;;;;21.95;59.63;100220.47;2081662;28;20036;-57
2021/06/08 02:06:31;;;;;;;2.40;2.10;;;;;;;21.95;59.41;100210.38;2083990;28;20126;-57
2021/06/08 02:07:54;;;;;;;3.08;2.00;;;;;;;21.94;59.21;100219.59;2086180;28;20029;-57
2021/06/08 02:09:32;;;;;;;2.00;1.70;;;;;;;21.94;59.23;100213.25;2081676;28;20032;-57
2021/06/08 02:10:52;;;;;;;2.40;1.73;;;;;;;21.92;59.59;100215.31;2080794;28;20022;-58
2021/06/08 02:12:05;;;;;;;2.75;1.77;;;;;;;21.92;59.47;100218.91;2086582;28;20028;-57
2021/06/08 02:13:34;;;;;;;2.60;1.77;;;;;;;21.93;59.32;100219.78;2083079;28;20029;-57
2021/06/08 02:15:11;;;;;;;3.08;1.75;;;;;;;21.91;59.27;100219.09;2077079;28;20049;-57
2021/06/08 02:16:44;;;;;;;3.78;2.10;;;;;;;21.93;59.40;100217.03;2081192;28;20037;-57
2021/06/08 02:17:50;;;;;;;5.30;2.10;;;;;;;21.92;59.31;100221.66;2063577;28;20279;-57
2021/06/08 02:18:51;;;;;;;2.15;1.40;;;;;;;21.94;59.19;100218.75;2077127;28;20065;-57
2021/06/08 02:19:55;;;;;;;3.23;1.87;;;;;;;21.93;59.15;100217.03;2090000;28;20114;-57
2021/06/08 02:21:01;;;;;;;2.83;1.88;;;;;;;21.93;59.16;100217.91;2082194;28;20029;-57
2021/06/08 02:22:05;;;;;;;3.00;1.80;;;;;;;21.94;59.42;100218.75;2080980;28;20037;-57
2021/06/08 02:23:11;;;;;;;2.65;1.75;;;;;;;21.95;59.05;100220.47;2089553;28;20040;-57
2021/06/08 02:24:16;;;;;;;2.88;2.17;;;;;;;21.95;59.21;100220.47;2084214;28;20021;-57
2021/06/08 02:25:18;;;;;;;1.95;1.60;;;;;;;21.95;59.16;100220.47;2080729;28;20029;-57
2021/06/08 02:26:20;;;;;;;2.65;2.00;;;;;;;21.95;59.36;100220.47;2084303;28;20116;-58
2021/06/08 02:27:24;;;;;;;;;;;;;;;21.92;59.47;100215.31;2083955;28;20026;-57
2021/06/08 02:28:29;;;;;;;1.58;1.48;;;;;;;21.92;59.62;100215.31;2085114;28;19921;-57
2021/06/08 02:29:31;;;;;;;1.75;1.50;;;;;;;21.91;59.43;100213.59;2085005;28;20039;-57
2021/06/08 02:30:33;;;;;;;1.83;1.63;;;;;;;21.94;59.14;100213.25;2087509;28;20033;-57
2021/06/08 02:31:34;;;;;;;2.90;1.90;;;;;;;21.95;59.49;100214.97;2080638;28;20025;-57
2021/06/08 02:32:35;;;;;;;2.15;1.95;;;;;;;21.94;59.25;100218.75;2085474;28;20033;-57
2021/06/08 02:33:38;;;;;;;2.13;1.87;;;;;;;21.94;59.23;100224.25;2089603;28;20092;-57
2021/06/08 02:34:40;;;;;;;3.05;1.90;;;;;;;21.95;59.20;100225.94;2083520;28;20043;-57
2021/06/08 02:35:40;;;;;;;2.28;1.52;;;;;;;21.95;59.21;100223.19;2080975;28;20029;-57
2021/06/08 02:36:44;;;;;;;2.77;1.67;;;;;;;21.95;59.35;100228.69;2081085;28;20037;-57
2021/06/08 02:37:45;;;;;;;2.42;1.80;;;;;;;21.96;59.48;100222.19;2081695;28;20180;-57
2021/06/08 02:38:48;;;;;;;2.63;1.80;;;;;;;21.96;59.22;100227.69;2080951;28;20095;-57
2021/06/08 02:39:50;;;;;;;2.63;2.03;;;;;;;21.96;59.08;100222.19;2081616;28;20120;-57
2021/06/08 02:40:52;;;;;;;2.00;1.45;;;;;;;21.96;59.29;100233.16;2081748;28;20546;-57
2021/06/08 02:41:53;;;;;;;;;;;;;;;21.92;59.39;100226.28;2076229;28;20428;-57
2021/06/08 02:42:54;;;;;;;3.03;2.00;;;;;;;21.95;59.06;100234.19;2080263;28;19913;-57
2021/06/08 02:43:55;;;;;;;1.93;1.67;;;;;;;21.95;59.17;100225.94;2086045;28;20416;-57
2021/06/08 02:44:58;;;;;;;1.63;1.50;;;;;;;21.95;59.25;100225.94;2087858;28;20564;-57
2021/06/08 02:45:59;;;;;;;2.33;1.90;;;;;;;21.94;59.35;100227.84;2081550;28;20029;-57
2021/06/08 02:47:00;;;;;;;1.85;1.67;;;;;;;21.95;59.22;100229.56;2072369;28;20033;-57
2021/06/08 02:48:01;;;;;;;2.73;2.00;;;;;;;21.94;58.99;100229.72;2072739;28;20038;-57
2021/06/08 02:49:02;;;;;;;2.20;1.70;;;;;;;21.96;59.05;100233.16;2080404;28;20040;-57
2021/06/08 02:50:05;;;;;;;3.20;2.00;;;;;;;21.95;59.08;100228.69;2080119;28;20340;-56
2021/06/08 02:51:06;;;;;;;1.73;1.60;;;;;;;21.96;59.24;100233.16;2081618;28;20033;-57
2021/06/08 02:52:07;;;;;;;1.85;1.42;;;;;;;21.96;59.21;100228.53;2080414;28;20171;-57
2021/06/08 02:53:08;;;;;;;2.30;1.90;;;;;;;21.95;59.04;100231.44;2078180;28;20033;-56
2021/06/08 02:54:09;;;;;;;1.80;1.60;;;;;;;21.94;59.21;100229.72;2079839;28;20068;-57
2021/06/08 02:55:10;;;;;;;2.33;1.90;;;;;;;21.95;59.08;100232.31;2087081;28;20029;-57
2021/06/08 02:56:10;;;;;;;1.60;1.50;;;;;;;21.96;59.14;100238.66;2081346;28;20447;-56
2021/06/08 02:57:11;;;;;;;2.60;2.10;;;;;;;21.95;59.38;100226.84;2081722;28;20037;-57
2021/06/08 02:58:12;;;;;;;1.80;1.67;;;;;;;21.96;59.11;100233.16;2083414;28;20079;-57
2021/06/08 02:59:14;;;;;;;3.08;1.80;;;;;;;21.95;59.26;100231.44;2082067;28;20025;-57
2021/06/08 03:00:15;;;;;;;2.65;1.40;;;;;;;21.94;59.13;100236.06;2085649;28;20029;-57
2021/06/08 03:01:20;;;;;;;2.30;1.90;;;;;;;21.94;59.36;100236.06;2081166;28;20033;-58
2021/06/08 03:02:23;;;;;;;1.83;1.63;;;;;;;21.93;59.19;100228.88;2088472;28;20037;-57
2021/06/08 03:03:30;;;;;;;2.58;1.92;;;;;;;21.94;59.41;100236.06;2088002;28;20049;-57
2021/06/08 03:04:44;;;;;;;2.85;1.95;;;;;;;21.93;59.10;100236.25;2088212;28;20040;-57
2021/06/08 03:05:54;;;;;;;2.30;1.70;;;;;;;21.92;59.05;100242.75;2089411;28;20052;-57
2021/06/08 03:06:58;;;;;;;2.25;1.63;;;;;;;21.93;59.42;100239.00;2085632;28;20041;-57
2021/06/08 03:08:04;;;;;;;2.08;1.80;;;;;;;21.92;59.07;100240.00;2083202;28;20026;-57
2021/06/08 03:09:10;;;;;;;1.95;1.58;;;;;;;21.92;59.29;100237.25;2083228;28;20033;-57
2021/06/08 03:10:15;;;;;;;2.35;1.92;;;;;;;21.93;59.11;100244.50;2086917;28;20048;-57
2021/06/08 03:11:23;;;;;;;2.88;1.80;;;;;;;21.92;59.55;100242.75;2085283;28;20030;-57
2021/06/08 03:12:38;;;;;;;1.90;1.70;;;;;;;21.92;59.36;100240.00;2084679;28;20115;-57
2021/06/08 03:13:39;;;;;;;3.55;2.03;;;;;;;21.92;59.52;100237.25;2089784;28;20068;-57
2021/06/08 03:14:43;;;;;;;2.38;1.55;;;;;;;21.91;59.18;100238.31;2086288;28;20045;-57
2021/06/08 03:15:48;;;;;;;2.15;1.88;;;;;;;21.92;59.38;100237.25;2086097;28;20671;-57
2021/06/08 03:16:52;;;;;;;2.15;1.60;;;;;;;21.93;59.33;100241.75;2078718;28;20755;-57
2021/06/08 03:17:53;;;;;;;1.95;1.50;;;;;;;21.93;59.51;100239.00;2075265;28;20129;-57
2021/06/08 03:18:58;;;;;;;1.98;1.60;;;;;;;21.92;59.46;100237.25;2082039;28;20139;-57
2021/06/08 03:20:09;;;;;;;2.83;2.05;;;;;;;21.91;59.06;100235.56;2079954;28;20044;-57
2021/06/08 03:21:30;;;;;;;2.08;1.88;;;;;;;21.90;59.15;100239.31;2082305;28;20029;-58
2021/06/08 03:22:31;;;;;;;1.85;1.52;;;;;;;21.92;59.27;100242.75;2082377;28;20029;-57
2021/06/08 03:23:39;;;;;;;2.03;1.60;;;;;;;21.90;59.16;100239.31;2086255;28;20073;-57
2021/06/08 03:24:41;;;;;;;2.25;1.83;;;;;;;21.91;59.36;100247.38;2088263;28;20052;-57
2021/06/08 03:25:45;;;;;;;2.08;1.60;;;;;;;21.92;59.24;100242.75;2087758;28;20024;-57
2021/06/08 03:26:46;;;;;;;3.10;2.03;;;;;;;21.92;59.11;100248.25;2089091;28;20028;-57
2021/06/08 03:27:48;;;;;;;5.95;2.10;;;;;;;21.92;59.20;100245.50;2082905;28;20024;-57
2021/06/08 03:28:52;;;;;;;3.22;2.03;;;;;;;21.92;59.19;100249.09;2085621;28;20075;-57
2021/06/08 03:29:53;;;;;;;3.00;2.00;;;;;;;21.92;59.25;100248.25;2082465;28;20079;-57
2021/06/08 03:30:55;;;;;;;2.10;1.70;;;;;;;21.92;59.17;100250.97;2081273;28;20060;-57
2021/06/08 03:31:56;;;;;;;2.10;1.85;;;;;;;21.92;59.11;100245.50;2085530;28;20032;-57
2021/06/08 03:32:57;;;;;;;1.92;1.70;;;;;;;21.92;59.24;100248.25;2082625;28;20021;-57
2021/06/08 03:33:58;;;;;;;2.60;1.48;;;;;;;21.92;59.39;100240.00;2083818;28;20762;-57
2021/06/08 03:34:58;;;;;;;1.90;1.53;;;;;;;21.92;59.22;100246.34;2084339;28;20044;-56
2021/06/08 03:35:59;;;;;;;2.95;1.40;;;;;;;21.93;59.05;100249.97;2081432;28;20099;-56
2021/06/08 03:37:01;;;;;;;2.42;1.90;;;;;;;21.92;59.01;100248.25;2076084;28;20091;-58
2021/06/08 03:38:02;;;;;;;2.42;2.10;;;;;;;21.92;58.95;100248.25;2082319;28;20032;-57
2021/06/08 03:39:03;;;;;;;3.22;2.03;;;;;;;21.91;59.33;100247.38;2082039;28;20056;-57
2021/06/08 03:40:05;;;;;;;1.95;1.73;;;;;;;21.91;59.15;100252.03;2082009;28;20083;-57
2021/06/08 03:41:06;;;;;;;;;;;;;;;21.87;59.10;100250.63;2082256;28;20051;-57
2021/06/08 03:42:07;;;;;;;;;;;;;;;21.83;59.29;100250.97;2082445;28;19912;-57
2021/06/08 03:43:08;;;;;;;;;;;;;;;21.81;59.55;100255.75;2082787;28;19916;-57
2021/06/08 03:44:11;;;;;;;;;;;;;;;21.80;59.43;100258.63;2082555;28;19913;-56
2021/06/08 03:45:13;;;;;;;;;;;;;;;21.79;59.34;100249.56;2082782;28;19913;-56
2021/06/08 03:46:13;;;;;;;;;;;;;;;21.78;59.70;100258.81;2083293;28;19913;-57
2021/06/08 03:47:17;;;;;;;;;;;;;;;21.78;59.67;100263.47;2086264;28;20192;-56
2021/06/08 03:48:18;;;;;;;;;;;;;;;21.76;59.58;100255.38;2083098;28;20374;-57
2021/06/08 03:49:20;;;;;;;;;;;;;;;21.78;59.60;100258.81;2082986;28;20041;-57
2021/06/08 03:50:20;;;;;;;;;;;;;;;21.77;59.66;100261.72;2079378;28;20228;-57
2021/06/08 03:51:20;;;;;;;;;;;;;;;21.77;59.54;100256.22;2082686;28;19924;-57
2021/06/08 03:52:21;;;;;;;;;;;;;;;21.76;59.53;100254.53;2084073;28;19928;-57
2021/06/08 03:53:21;;;;;;;;;;;;;;;21.76;59.47;100260.88;2082429;28;19913;-57
2021/06/08 03:54:22;;;;;;;;;;;;;;;21.76;59.49;100260.88;2086521;28;19927;-57
2021/06/08 03:55:24;;;;;;;;;;;;;;;21.76;59.61;100255.38;2086836;28;19909;-56
2021/06/08 03:56:25;;;;;;;;;;;;;;;21.76;59.60;100255.38;2086124;28;19921;-57
2021/06/08 03:57:28;;;;;;;;;;;;;;;21.76;59.59;100258.13;2081547;28;20231;-57
2021/06/08 03:58:29;;;;;;;;;;;;;;;21.77;59.41;100258.97;2081152;28;19913;-57
2021/06/08 03:59:29;;;;;;;;;;;;;;;21.75;59.32;100250.91;2080589;28;19944;-57
2021/06/08 04:00:30;;;;;;;;;;;;;;;21.76;59.44;100258.13;2088200;28;20458;-57
2021/06/08 04:01:31;;;;;;;;;;;;;;;21.75;59.58;100253.63;2084962;28;19916;-57
2021/06/08 04:02:33;;;;;;;;;;;;;;;21.75;59.55;100261.88;2081448;28;19909;-57
2021/06/08 04:03:34;;;;;;;;;;;;;;;21.76;59.42;100258.13;2081603;28;19912;-56
2021/06/08 04:04:34;;;;;;;;;;;;;;;21.75;59.46;100261.03;2087324;28;19921;-57
2021/06/08 04:05:38;;;;;;;;;;;;;;;21.77;59.37;100258.97;2084095;28;19917;-58
2021/06/08 04:06:38;;;;;;;;;;;;;;;21.75;59.51;100256.38;2082534;28;19960;-58
2021/06/08 04:07:39;;;;;;;;;;;;;;;21.75;59.47;100264.63;2083438;28;19940;-57
2021/06/08 04:08:40;;;;;;;;;;;;;;;21.75;59.57;100259.13;2085093;28;20332;-57
2021/06/08 04:09:40;;;;;;;;;;;;;;;21.75;59.61;100259.13;2087832;28;19913;-57
2021/06/08 04:10:41;;;;;;;;;;;;;;;21.74;59.57;100251.94;2084691;28;20025;-57
2021/06/08 04:11:42;;;;;;;;;;;;;;;21.74;59.65;100251.94;2081903;28;20001;-57
2021/06/08 04:12:43;;;;;;;;;;;;;;;21.74;59.32;100256.56;2082309;28;19913;-57
2021/06/08 04:13:44;;;;;;;;;;;;;;;21.73;59.47;100250.22;2082727;28;20396;-57
2021/06/08 04:14:44;;;;;;;;;;;;;;;21.75;59.64;100258.28;2082910;28;20295;-57
2021/06/08 04:15:45;;;;;;;;;;;;;;;21.74;59.54;100251.09;2082231;28;19927;-57
2021/06/08 04:16:46;;;;;;;;;;;;;;;21.74;59.47;100249.19;2083713;28;19919;-57
2021/06/08 04:17:46;;;;;;;;;;;;;;;21.74;59.34;100256.56;2090387;28;20436;-57
2021/06/08 04:18:47;;;;;;;;;;;;;;;21.73;59.32;100258.47;2087073;28;19998;-57
2021/06/08 04:19:47;;;;;;;;;;;;;;;21.74;59.38;100262.91;2082511;28;19931;-56
2021/06/08 04:20:48;;;;;;;;;;;;;;;21.73;59.30;100261.19;2080204;28;19920;-57
2021/06/08 04:21:51;;;;;;;;;;;;;;;21.75;59.38;100264.63;2083160;28;19924;-56
2021/06/08 04:22:54;;;;;;;;;;;;;;;21.74;59.30;100260.16;2082907;28;20307;-57
2021/06/08 04:23:58;;;;;;;;;;;;;;;21.73;59.54;100261.19;2082229;28;19917;-57
2021/06/08 04:24:59;;;;;;;;;;;;;;;21.74;59.32;100262.91;2083058;28;19913;-57
2021/06/08 04:25:59;;;;;;;;;;;;;;;21.74;59.33;100267.53;2081934;28;19986;-58
2021/06/08 04:27:00;;;;;;;;;;;;;;;21.73;59.41;100263.06;2082573;28;19921;-57
2021/06/08 04:28:02;;;;;;;;;;;;;;;21.73;59.57;100266.69;2083571;28;19913;-58
2021/06/08 04:29:02;;;;;;;;;;;;;;;21.72;59.40;100264.94;2074312;28;19959;-57
2021/06/08 04:30:07;;;;;;;;;;;;;;;21.72;59.47;100259.47;2073449;28;19913;-57
2021/06/08 04:31:07;;;;;;;;;;;;;;;21.73;59.70;100269.44;2074683;28;19988;-57
2021/06/08 04:32:08;;;;;;;;;;;;;;;21.72;59.42;100264.94;2081259;28;20449;-57
2021/06/08 04:33:08;;;;;;;;;;;;;;;21.74;59.38;100265.66;2083856;28;19917;-57
2021/06/08 04:34:08;;;;;;;;;;;;;;;21.73;59.55;100265.81;2075691;28;20596;-57
2021/06/08 04:35:09;;;;;;;;;;;;;;;21.72;59.25;100267.69;2080357;28;19912;-57
2021/06/08 04:36:09;;;;;;;;;;;;;;;21.72;59.32;100264.94;2087703;28;19921;-56
2021/06/08 04:37:11;;;;;;;;;;;;;;;21.73;59.46;100271.28;2081398;28;19913;-57
2021/06/08 04:38:13;;;;;;;;;;;;;;;21.72;59.47;100264.94;2077076;28;20125;-57
2021/06/08 04:39:13;;;;;;;;;;;;;;;21.73;59.35;100272.19;2082527;28;19915;-57
2021/06/08 04:40:15;;;;;;;;;;;;;;;21.73;59.64;100272.19;2081123;28;19917;-57
2021/06/08 04:41:15;;;;;;;;;;;;;;;21.72;59.33;100264.09;2081500;28;19917;-57
2021/06/08 04:42:16;;;;;;;;;;;;;;;21.74;59.38;100270.28;2082757;28;20551;-57
2021/06/08 04:43:23;;;;;;;;;;;;;;;21.72;59.34;100270.44;2087977;28;19912;-57
2021/06/08 04:44:23;;;;;;;;;;;;;;;21.72;59.58;100270.44;2082649;28;19913;-57
2021/06/08 04:45:24;;;;;;;;;;;;;;;21.72;59.56;100275.91;2082147;28;19917;-58
2021/06/08 04:46:24;;;;;;;;;;;;;;;21.71;59.63;100276.97;2088383;28;20331;-58
2021/06/08 04:47:24;;;;;;;;;;;;;;;21.70;59.84;100283.44;2090208;28;19931;-57
2021/06/08 04:48:25;;;;;;;;;;;;;;;21.69;60.00;100276.25;2085980;28;19909;-56
2021/06/08 04:49:25;;;;;;;;;;;;;;;21.70;59.58;100277.97;2090852;28;20007;-54
2021/06/08 04:50:26;;;;;;;;;;;;;;;21.72;59.46;100284.16;2081984;28;19921;-56
2021/06/08 04:51:26;;;;;;;;;;;;;;;21.73;59.59;100282.25;2085605;28;19942;-56
2021/06/08 04:52:27;;;;;;;;;;;;;;;21.73;59.73;100283.16;2081732;28;20023;-56
2021/06/08 04:53:27;;;;;;;;;;;;;;;21.73;59.69;100283.16;2078754;28;20039;-53
2021/06/08 04:54:27;;;;;;;;;;;;;;;21.73;59.43;100288.63;2090412;28;19935;-56
2021/06/08 04:55:28;;;;;;;;;;;;;;;21.74;59.45;100284.84;2083386;28;20577;-56
2021/06/08 04:56:28;;;;;;;;;;;;;;;21.75;59.27;100289.31;2081715;28;19959;-57
2021/06/08 04:57:29;;;;;;;;;;;;;;;21.75;59.21;100286.56;2089487;28;19917;-56
2021/06/08 04:58:29;;;;;;;;;;;;;;;21.75;59.30;100285.72;2087521;28;20371;-56
2021/06/08 04:59:59;;;;;;;;;;;;;;;21.74;59.32;100284.84;2086059;28;19939;-58
2021/06/08 05:01:02;;;;;;;;;;;;;;;21.75;59.01;100281.06;2071664;28;20271;-56